Terminal Aerodrome Forecast
Issued by NWS Portland, OR

Home | Current Version | Previous Version | Text Only | Print | Product List | Glossary On
Versions: 1 2 3 4 5 6 7 8 9 10 11 12 13 14 15 16 17 18 19 20 21 22 23 24 25 26 27 28 29 30 31 32 33 34 35 36
484
FTUS46 KPQR 302338
TAFHIO
TAF
KHIO 302338Z 0100/0124 31008KT P6SM SCT060
     FM010800 VRB03KT P6SM SCT060
     FM011200 00000KT P6SM BKN100
     FM011800 15005KT 6SM -RA SCT025 OVC050
     FM012200 15005KT 6SM -RA SCT015 OVC025=

USA.gov is the U.S. government's official web portal to all federal, state and local government web resources and services.